createdAt,value
2023-05-05T00:01:37.402Z,6.25
2023-05-05T00:04:24.287Z,5.57
2023-05-05T00:07:10.041Z,5.88
2023-05-05T00:09:55.394Z,6.15
2023-05-05T00:12:40.894Z,6.43
2023-05-05T00:15:27.538Z,6.43
2023-05-05T00:18:16.243Z,5.70
2023-05-05T00:21:01.730Z,7.53
2023-05-05T00:23:47.005Z,6.93
2023-05-05T00:26:32.628Z,6.47
2023-05-05T00:29:18.612Z,7.03
2023-05-05T00:32:04.438Z,7.05
2023-05-05T00:34:49.976Z,7.15
2023-05-05T00:37:36.053Z,6.03
2023-05-05T00:40:22.197Z,7.55
2023-05-05T00:43:08.268Z,7.07
2023-05-05T00:46:02.032Z,6.97
2023-05-05T00:51:33.047Z,7.10
2023-05-05T00:54:19.020Z,7.22
2023-05-05T00:57:04.930Z,7.70
2023-05-05T00:59:51.421Z,7.35
2023-05-05T01:02:37.318Z,6.45
2023-05-05T01:05:24.693Z,7.53
2023-05-05T01:08:34.780Z,8.45
2023-05-05T01:11:42.657Z,7.85
2023-05-05T01:14:40.840Z,8.98
2023-05-05T01:20:26.079Z,8.38
2023-05-05T01:23:21.481Z,10.80
2023-05-05T01:26:52.626Z,10.52
2023-05-05T01:29:47.610Z,10.02
2023-05-05T01:32:37.886Z,9.13
2023-05-05T01:35:29.292Z,8.52
2023-05-05T01:38:19.579Z,8.85
2023-05-05T01:41:11.946Z,8.82
2023-05-05T01:44:00.065Z,9.45
2023-05-05T01:46:47.354Z,9.48
2023-05-05T01:49:33.040Z,7.88
2023-05-05T01:52:18.542Z,8.55
2023-05-05T01:55:05.644Z,8.23
2023-05-05T01:57:52.122Z,7.90
2023-05-05T02:00:38.706Z,8.05
2023-05-05T02:03:26.907Z,8.32
2023-05-05T02:06:12.630Z,8.88
2023-05-05T02:08:58.426Z,8.52
2023-05-05T02:11:44.307Z,8.23
2023-05-05T02:14:30.060Z,7.70
2023-05-05T02:17:16.168Z,8.25
2023-05-05T02:20:02.392Z,9.30
2023-05-05T02:22:48.552Z,8.13
2023-05-05T02:25:38.572Z,12.27
2023-05-05T02:28:41.015Z,8.57
2023-05-05T02:31:27.406Z,7.47
2023-05-05T02:34:13.991Z,11.15
2023-05-05T02:37:00.936Z,11.95
2023-05-05T02:40:09.383Z,13.05
2023-05-05T02:42:59.182Z,9.25
2023-05-05T02:45:48.673Z,8.88
2023-05-05T02:48:35.989Z,9.82
2023-05-05T02:51:21.595Z,9.10
2023-05-05T02:54:07.151Z,9.93
2023-05-05T02:56:54.230Z,9.98
2023-05-05T02:59:50.959Z,11.20
2023-05-05T03:02:48.858Z,10.27
2023-05-05T03:06:00.694Z,10.75
2023-05-05T03:08:57.383Z,11.15
2023-05-05T03:11:48.300Z,12.30
2023-05-05T03:14:37.410Z,12.85
2023-05-05T03:17:25.080Z,15.93
2023-05-05T03:20:12.525Z,14.57
2023-05-05T03:23:04.226Z,13.13
2023-05-05T03:25:52.025Z,13.95
2023-05-05T03:28:58.022Z,12.90
2023-05-05T03:31:47.288Z,13.07
2023-05-05T03:34:32.845Z,21.73
2023-05-05T03:37:21.676Z,26.17
2023-05-05T03:40:08.178Z,28.02
2023-05-05T03:42:54.139Z,24.33
2023-05-05T03:45:40.216Z,43.22
2023-05-05T03:48:26.170Z,43.83
2023-05-05T03:51:12.911Z,17.15
2023-05-05T03:53:59.135Z,12.98
2023-05-05T03:56:44.658Z,12.60
2023-05-05T03:59:30.528Z,11.60
2023-05-05T04:02:18.288Z,12.30
2023-05-05T04:05:07.249Z,12.18
2023-05-05T04:07:52.909Z,10.75
2023-05-05T04:10:39.303Z,11.23
2023-05-05T04:13:25.156Z,11.10
2023-05-05T04:16:11.272Z,11.13
2023-05-05T04:18:57.771Z,11.88
2023-05-05T04:21:43.715Z,11.85
2023-05-05T04:24:32.287Z,12.43
2023-05-05T04:27:18.199Z,11.73
2023-05-05T04:30:04.933Z,12.43
2023-05-05T04:32:52.428Z,12.10
2023-05-05T04:35:38.411Z,16.58
2023-05-05T04:38:24.012Z,13.13
2023-05-05T04:41:10.467Z,11.73
2023-05-05T04:43:58.133Z,11.00
2023-05-05T04:46:45.018Z,10.73
2023-05-05T04:49:33.612Z,10.57
2023-05-05T04:52:19.538Z,10.95
2023-05-05T04:55:05.548Z,10.73
2023-05-05T04:57:52.036Z,11.68
2023-05-05T05:00:38.107Z,12.55
2023-05-05T05:03:24.034Z,12.95
2023-05-05T05:06:12.433Z,14.60
2023-05-05T05:08:57.858Z,16.60
2023-05-05T05:11:43.476Z,14.45
2023-05-05T05:14:29.915Z,28.20
2023-05-05T05:17:15.734Z,25.98
2023-05-05T05:20:01.550Z,22.45
2023-05-05T05:22:49.545Z,30.67
2023-05-05T05:25:37.227Z,28.67
2023-05-05T05:28:23.052Z,17.42
2023-05-05T05:31:13.035Z,12.30
2023-05-05T05:33:58.542Z,11.38
2023-05-05T05:36:44.086Z,10.93
2023-05-05T05:39:30.624Z,9.73
2023-05-05T05:42:16.396Z,9.65
2023-05-05T05:45:02.000Z,10.23
2023-05-05T05:47:48.437Z,9.95
2023-05-05T05:50:35.834Z,11.32
2023-05-05T05:56:09.850Z,9.43
2023-05-05T05:58:56.280Z,8.63
2023-05-05T06:01:42.082Z,8.88
2023-05-05T06:04:28.114Z,8.30
2023-05-05T06:07:14.022Z,8.63
2023-05-05T06:10:02.977Z,8.65
2023-05-05T06:12:57.359Z,8.63
2023-05-05T06:15:43.186Z,8.90
2023-05-05T06:18:31.222Z,7.45
2023-05-05T06:21:16.755Z,7.90
2023-05-05T06:24:02.239Z,7.82
2023-05-05T06:26:48.008Z,9.10
2023-05-05T06:29:33.490Z,7.30
2023-05-05T06:32:20.294Z,8.07
2023-05-05T06:35:07.338Z,7.88
2023-05-05T06:37:53.019Z,7.30
2023-05-05T06:40:38.641Z,8.23
2023-05-05T06:43:23.986Z,7.88
2023-05-05T06:46:15.681Z,8.20
2023-05-05T06:49:01.696Z,8.70
2023-05-05T06:51:46.986Z,9.18
2023-05-05T06:54:32.514Z,7.32
2023-05-05T06:57:18.003Z,8.63
2023-05-05T07:00:06.115Z,7.55
2023-05-05T07:02:52.099Z,7.60
2023-05-05T07:05:37.918Z,7.10
2023-05-05T07:08:23.359Z,7.43
2023-05-05T07:11:08.827Z,7.68
2023-05-05T07:13:54.002Z,7.70
2023-05-05T07:16:39.580Z,7.43
2023-05-05T07:19:25.339Z,7.13
2023-05-05T07:22:10.778Z,7.88
2023-05-05T07:24:56.384Z,7.45
2023-05-05T07:27:41.765Z,8.52
2023-05-05T07:30:27.185Z,7.80
2023-05-05T07:33:13.130Z,7.47
2023-05-05T07:35:58.448Z,7.38
2023-05-05T07:38:44.230Z,7.15
2023-05-05T07:41:29.941Z,7.68
2023-05-05T07:44:17.110Z,7.35
2023-05-05T07:47:02.872Z,7.20
2023-05-05T07:49:48.763Z,7.03
2023-05-05T07:52:46.122Z,7.45
2023-05-05T07:55:33.735Z,6.38
2023-05-05T07:58:19.112Z,6.97
2023-05-05T08:01:06.538Z,7.30
2023-05-05T08:03:52.408Z,6.47
2023-05-05T08:06:38.351Z,6.60
2023-05-05T08:09:23.627Z,6.95
2023-05-05T08:12:09.206Z,6.05
2023-05-05T08:14:54.489Z,6.53
2023-05-05T08:17:52.350Z,6.15
2023-05-05T08:20:38.130Z,6.53
2023-05-05T08:23:23.778Z,6.75
2023-05-05T08:26:12.001Z,6.25
2023-05-05T08:29:00.805Z,6.28
2023-05-05T08:31:46.435Z,6.57
2023-05-05T08:34:31.865Z,6.43
2023-05-05T08:37:19.004Z,5.45
2023-05-05T08:40:05.424Z,5.45
2023-05-05T08:42:51.159Z,4.80
2023-05-05T08:45:36.971Z,5.82
2023-05-05T08:48:23.485Z,3.80
2023-05-05T08:54:02.592Z,5.60
2023-05-05T08:56:50.698Z,5.40
2023-05-05T08:59:37.304Z,5.18
2023-05-05T09:02:24.564Z,5.03
2023-05-05T09:05:10.559Z,3.72
2023-05-05T09:07:56.192Z,5.07
2023-05-05T09:10:42.169Z,2.05
2023-05-05T09:13:27.719Z,4.78
2023-05-05T09:16:13.295Z,4.45
2023-05-05T09:19:05.294Z,4.72
2023-05-05T09:21:51.134Z,4.88
2023-05-05T09:24:36.450Z,4.45
2023-05-05T09:27:23.524Z,4.10
2023-05-05T09:30:10.582Z,11.50
2023-05-05T09:32:56.399Z,5.10
2023-05-05T09:35:52.852Z,2.78
2023-05-05T09:38:38.598Z,2.97
2023-05-05T09:41:37.557Z,2.55
2023-05-05T09:44:37.571Z,2.60
2023-05-05T09:47:34.927Z,2.20
2023-05-05T09:50:21.489Z,2.25
2023-05-05T09:53:08.014Z,1.52
2023-05-05T09:56:00.987Z,2.50
2023-05-05T09:58:46.756Z,2.22
2023-05-05T10:01:32.703Z,2.50
2023-05-05T10:04:28.916Z,1.95
2023-05-05T10:07:27.340Z,2.65
2023-05-05T10:10:20.569Z,2.10
2023-05-05T10:13:10.136Z,2.35
2023-05-05T10:15:57.255Z,2.05
2023-05-05T10:18:46.501Z,2.67
2023-05-05T10:21:34.327Z,2.30
2023-05-05T10:24:26.739Z,2.75
2023-05-05T10:27:17.955Z,2.10
2023-05-05T10:30:04.914Z,2.50
2023-05-05T10:33:03.569Z,2.38
2023-05-05T10:35:57.257Z,2.28
2023-05-05T10:38:43.089Z,2.42
2023-05-05T10:41:28.721Z,2.38
2023-05-05T10:44:14.838Z,2.40
2023-05-05T10:47:00.513Z,2.17
2023-05-05T10:50:00.468Z,2.13
2023-05-05T10:53:04.992Z,2.50
2023-05-05T10:56:04.433Z,2.50
2023-05-05T10:58:59.841Z,2.28
2023-05-05T11:01:45.989Z,2.42
2023-05-05T11:04:31.914Z,2.50
2023-05-05T11:07:24.048Z,2.70
2023-05-05T11:10:12.276Z,2.38
2023-05-05T11:12:59.301Z,2.40
2023-05-05T11:15:45.408Z,2.50
2023-05-05T11:18:33.813Z,2.88
2023-05-05T11:21:19.594Z,2.42
2023-05-05T11:24:42.208Z,2.35
2023-05-05T11:28:17.198Z,2.38
2023-05-05T11:31:03.180Z,3.22
2023-05-05T11:33:48.588Z,2.22
2023-05-05T11:36:40.913Z,3.08
2023-05-05T11:39:36.432Z,3.53
2023-05-05T11:42:26.627Z,3.20
2023-05-05T11:45:24.986Z,3.50
2023-05-05T11:49:16.322Z,3.17
2023-05-05T11:52:13.077Z,3.03
2023-05-05T11:55:00.762Z,3.30
2023-05-05T11:57:46.381Z,2.65
2023-05-05T12:00:32.749Z,2.55
2023-05-05T12:03:18.220Z,2.53
2023-05-05T12:06:04.714Z,2.50
2023-05-05T12:08:50.586Z,2.17
2023-05-05T12:11:35.814Z,1.80
2023-05-05T12:14:21.838Z,1.80
2023-05-05T12:17:08.220Z,2.30
2023-05-05T12:19:54.808Z,1.75
2023-05-05T12:22:40.646Z,2.25
2023-05-05T12:25:26.584Z,1.95
2023-05-05T12:28:12.534Z,1.70
2023-05-05T12:30:59.054Z,1.73
2023-05-05T12:33:45.412Z,2.00
2023-05-05T12:36:31.134Z,1.67
2023-05-05T12:39:16.834Z,1.80
2023-05-05T12:42:06.429Z,2.10
2023-05-05T12:44:52.218Z,2.90
2023-05-05T12:47:38.462Z,2.55
2023-05-05T12:50:32.000Z,2.72
2023-05-05T12:53:25.584Z,2.65
2023-05-05T12:56:43.571Z,3.15
2023-05-05T12:59:30.731Z,2.20
2023-05-05T13:07:51.919Z,2.50
2023-05-05T13:10:37.921Z,2.67
2023-05-05T13:13:23.554Z,2.63
2023-05-05T13:16:09.010Z,2.80
2023-05-05T13:18:55.542Z,2.20
2023-05-05T13:21:41.733Z,2.25
2023-05-05T13:24:42.236Z,2.25
2023-05-05T13:27:33.337Z,2.22
2023-05-05T13:30:20.633Z,2.40
2023-05-05T13:33:06.015Z,2.00
2023-05-05T13:35:51.471Z,2.03
2023-05-05T13:38:37.475Z,1.70
2023-05-05T13:41:23.111Z,2.13
2023-05-05T13:44:08.534Z,2.42
2023-05-05T13:46:59.508Z,2.55
2023-05-05T13:49:46.762Z,1.90
2023-05-05T13:52:33.454Z,2.42
2023-05-05T13:55:19.377Z,2.28
2023-05-05T13:58:05.336Z,2.20
2023-05-05T14:00:51.686Z,1.80
2023-05-05T14:03:39.577Z,2.05
2023-05-05T14:06:26.316Z,2.42
2023-05-05T14:09:13.128Z,1.92
2023-05-05T14:11:59.106Z,1.73
2023-05-05T14:14:45.020Z,2.28
2023-05-05T14:17:30.786Z,1.88
2023-05-05T14:20:16.269Z,2.03
2023-05-05T14:23:01.761Z,1.80
2023-05-05T14:25:47.699Z,2.10
2023-05-05T14:28:33.336Z,1.80
2023-05-05T14:31:18.958Z,1.77
2023-05-05T14:34:04.399Z,1.90
2023-05-05T14:36:49.925Z,1.90
2023-05-05T14:39:35.616Z,2.10
2023-05-05T14:42:21.091Z,1.90
2023-05-05T14:45:08.937Z,1.90
2023-05-05T14:47:54.589Z,1.80
2023-05-05T14:50:42.260Z,1.63
2023-05-05T14:53:27.606Z,1.60
2023-05-05T14:56:13.685Z,1.95
2023-05-05T14:58:58.960Z,1.65
2023-05-05T15:01:44.630Z,1.88
2023-05-05T15:04:36.034Z,1.98
2023-05-05T15:07:22.762Z,2.17
2023-05-05T15:10:09.139Z,1.90
2023-05-05T15:12:54.586Z,2.10
2023-05-05T15:15:40.458Z,2.10
2023-05-05T15:19:32.326Z,1.98
2023-05-05T15:22:26.148Z,1.70
2023-05-05T15:25:16.975Z,1.73
2023-05-05T15:28:02.680Z,2.58
2023-05-05T15:30:48.028Z,1.90
2023-05-05T15:33:33.683Z,1.92
2023-05-05T15:36:22.820Z,2.05
2023-05-05T15:39:08.443Z,1.80
2023-05-05T15:41:53.760Z,1.45
2023-05-05T15:44:39.706Z,2.63
2023-05-05T15:47:24.991Z,2.70
2023-05-05T15:50:10.946Z,2.10
2023-05-05T15:52:57.381Z,2.20
2023-05-05T15:55:43.189Z,2.35
2023-05-05T15:58:28.549Z,2.20
2023-05-05T16:01:13.767Z,3.03
2023-05-05T16:04:01.285Z,2.70
2023-05-05T16:06:47.101Z,2.22
2023-05-05T16:09:32.477Z,2.10
2023-05-05T16:12:20.780Z,2.28
2023-05-05T16:15:07.111Z,2.45
2023-05-05T16:17:52.924Z,10.18
2023-05-05T16:20:38.453Z,7.85
2023-05-05T16:23:24.125Z,5.18
2023-05-05T16:26:09.926Z,2.90
2023-05-05T16:28:55.253Z,1.70
2023-05-05T16:31:41.104Z,1.98
2023-05-05T16:34:26.821Z,1.60
2023-05-05T16:37:12.777Z,2.00
2023-05-05T16:39:58.405Z,1.65
2023-05-05T16:42:44.635Z,1.52
2023-05-05T16:45:31.654Z,1.60
2023-05-05T16:51:05.357Z,1.40
2023-05-05T16:53:51.310Z,1.90
2023-05-05T16:56:39.361Z,1.25
2023-05-05T16:59:27.070Z,2.13
2023-05-05T17:07:44.943Z,2.40
2023-05-05T17:10:30.596Z,2.92
2023-05-05T17:13:17.397Z,2.17
2023-05-05T17:16:05.473Z,5.13
2023-05-05T17:18:53.897Z,5.68
2023-05-05T17:21:39.308Z,7.97
2023-05-05T17:24:26.119Z,4.38
2023-05-05T17:27:12.777Z,6.20
2023-05-05T17:29:58.802Z,5.10
2023-05-05T17:32:44.915Z,4.78
2023-05-05T17:35:30.465Z,4.78
2023-05-05T17:38:16.149Z,5.85
2023-05-05T17:41:03.299Z,4.32
2023-05-05T17:43:49.634Z,3.70
2023-05-05T17:46:35.224Z,2.33
2023-05-05T17:49:28.334Z,2.13
2023-05-05T17:52:16.252Z,2.47
2023-05-05T17:55:01.709Z,2.40
2023-05-05T17:57:47.554Z,2.42
2023-05-05T18:00:33.067Z,2.97
2023-05-05T18:03:18.648Z,2.80
2023-05-05T18:06:04.643Z,3.28
2023-05-05T18:08:50.047Z,13.82
2023-05-05T18:11:35.911Z,4.63
2023-05-05T18:14:23.000Z,9.52
2023-05-05T18:19:54.636Z,6.50
2023-05-05T18:22:39.993Z,4.35
2023-05-05T18:25:26.266Z,4.63
2023-05-05T18:28:12.341Z,3.53
2023-05-05T18:30:58.252Z,4.35
2023-05-05T18:33:46.069Z,8.20
2023-05-05T18:36:33.247Z,4.70
2023-05-05T18:39:19.311Z,7.50
2023-05-05T18:42:05.388Z,7.45
2023-05-05T18:44:51.456Z,7.18
2023-05-05T18:47:38.338Z,7.63
2023-05-05T18:50:24.058Z,9.68
2023-05-05T18:53:10.847Z,10.45
2023-05-05T18:56:03.504Z,9.25
2023-05-05T18:58:53.963Z,7.82
2023-05-05T19:01:42.992Z,5.72
2023-05-05T19:04:31.691Z,4.75
2023-05-05T19:07:35.518Z,5.07
2023-05-05T19:10:23.429Z,4.47
2023-05-05T19:13:15.060Z,4.75
2023-05-05T19:16:00.894Z,3.38
2023-05-05T19:18:48.223Z,4.00
2023-05-05T19:21:34.905Z,4.40
2023-05-05T19:24:30.211Z,5.18
2023-05-05T19:27:19.223Z,3.90
2023-05-05T19:30:08.795Z,3.88
2023-05-05T19:33:04.153Z,3.28
2023-05-05T19:36:01.280Z,3.40
2023-05-05T19:38:49.695Z,3.20
2023-05-05T19:41:35.661Z,3.58
2023-05-05T19:44:23.878Z,2.97
2023-05-05T19:47:11.443Z,3.10
2023-05-05T19:49:59.964Z,4.90
2023-05-05T19:53:37.130Z,4.65
2023-05-05T19:56:28.284Z,5.72
2023-05-05T19:59:14.718Z,5.45
2023-05-05T20:02:02.672Z,4.20
2023-05-05T20:07:33.444Z,4.90
2023-05-05T20:10:19.295Z,4.22
2023-05-05T20:13:07.494Z,3.53
2023-05-05T20:15:53.609Z,3.45
2023-05-05T20:18:40.488Z,3.40
2023-05-05T20:21:27.215Z,4.03
2023-05-05T20:24:12.746Z,4.57
2023-05-05T20:26:58.315Z,4.88
2023-05-05T20:29:48.310Z,4.68
2023-05-05T20:32:33.994Z,9.40
2023-05-05T20:35:21.373Z,8.43
2023-05-05T20:38:07.386Z,5.57
2023-05-05T20:40:53.414Z,7.28
2023-05-05T20:43:40.101Z,5.75
2023-05-05T20:46:25.641Z,6.38
2023-05-05T20:49:11.607Z,4.45
2023-05-05T20:51:59.468Z,5.82
2023-05-05T20:54:45.720Z,4.63
2023-05-05T20:57:31.437Z,3.40
2023-05-05T21:00:17.653Z,3.33
2023-05-05T21:03:07.030Z,3.20
2023-05-05T21:05:52.656Z,3.72
2023-05-05T21:08:39.852Z,3.47
2023-05-05T21:11:25.607Z,3.10
2023-05-05T21:14:12.090Z,3.97
2023-05-05T21:16:58.249Z,3.47
2023-05-05T21:19:44.246Z,3.67
2023-05-05T21:22:29.946Z,3.45
2023-05-05T21:25:20.665Z,4.55
2023-05-05T21:28:06.709Z,4.53
2023-05-05T21:33:42.772Z,4.03
2023-05-05T21:36:29.318Z,3.60
2023-05-05T21:39:14.695Z,4.47
2023-05-05T21:42:00.680Z,4.38
2023-05-05T21:44:47.135Z,4.40
2023-05-05T21:47:32.879Z,5.13
2023-05-05T21:50:18.454Z,5.05
2023-05-05T21:53:06.064Z,3.85
2023-05-05T21:55:52.454Z,4.05
2023-05-05T21:58:40.255Z,3.45
2023-05-05T22:01:26.292Z,3.45
2023-05-05T22:04:11.924Z,3.30
2023-05-05T22:06:58.766Z,3.78
2023-05-05T22:09:44.601Z,3.65
2023-05-05T22:12:30.500Z,3.78
2023-05-05T22:15:19.272Z,4.05
2023-05-05T22:18:05.080Z,3.72
2023-05-05T22:21:00.716Z,4.03
2023-05-05T22:23:46.501Z,3.97
2023-05-05T22:26:31.666Z,4.55
2023-05-05T22:29:17.002Z,3.97
2023-05-05T22:32:02.377Z,3.78
2023-05-05T22:34:47.678Z,3.80
2023-05-05T22:37:33.939Z,4.38
2023-05-05T22:40:17.312Z,4.50
2023-05-05T22:43:03.042Z,4.28
2023-05-05T22:45:50.044Z,3.85
2023-05-05T22:48:36.725Z,4.45
2023-05-05T22:51:23.432Z,5.00
2023-05-05T22:54:09.615Z,4.18
2023-05-05T22:56:56.784Z,4.30
2023-05-05T22:59:43.120Z,3.72
2023-05-05T23:02:33.081Z,5.28
2023-05-05T23:05:20.527Z,4.43
2023-05-05T23:10:53.312Z,4.30
2023-05-05T23:13:39.336Z,4.30
2023-05-05T23:16:24.947Z,7.65
2023-05-05T23:19:10.522Z,4.82
2023-05-05T23:21:57.108Z,4.97
2023-05-05T23:24:43.618Z,4.65
2023-05-05T23:27:29.309Z,5.20
2023-05-05T23:30:16.279Z,5.40
2023-05-05T23:33:02.268Z,4.82
2023-05-05T23:35:47.977Z,4.82
2023-05-05T23:38:33.357Z,5.20
2023-05-05T23:41:19.361Z,4.85
2023-05-05T23:44:04.922Z,5.10
2023-05-05T23:46:50.188Z,4.45
2023-05-05T23:49:35.816Z,4.28
2023-05-05T23:52:21.880Z,3.88
2023-05-05T23:55:08.471Z,3.80
2023-05-05T23:57:54.130Z,4.00
